OOCL Hamburg — VRZK9 — position and weather

sailwx.info

Track history (hours):
 
Tides and Currents Weather Stations Pressure Air Temp Water Temp Dewpoint Dewpoint Depression Visibility Wind Speed Wind Dir Waves Ship Positions

OOCL Hamburg

Last reported at 2014-Dec-14 23:28 UTC. Time now 2014-Dec-22 10:39 UTC.
Position N 02°02' E 102°10'.

Length 323 m; beam 42.8 m; draft 14.5 m.

Type: Cargo ship. MMSI: 477702000.

Date/timePositionNaut miles runAvg speedWind from/ knotsBaromVisibWave heightAir tempDewpointWater temp
2014-Dec-14 23:28N 02°02' E 102°10'1617.4
2014-Dec-14 22:33N 01°53' E 102°23'1817.4
2014-Dec-14 21:33N 01°45' E 102°39'6817.0
2014-Dec-14 17:33N 01°11' E 103°38'1414.5
2014-Dec-14 16:33N 01°13' E 103°52'3 2.8
2014-Dec-14 15:33N 01°16' E 103°51'0 0.0
2014-Dec-14 14:30N 01°16' E 103°51'0 0.0
2014-Dec-14 13:30N 01°16' E 103°51'0 0.0
2014-Dec-14 12:33N 01°16' E 103°51'0 0.0
2014-Dec-14 11:33N 01°16' E 103°51'0 0.0
2014-Dec-14 10:33N 01°16' E 103°51'0 0.0
2014-Dec-14 09:27N 01°16' E 103°51'0 0.0
2014-Dec-14 08:27N 01°16' E 103°51'0 0.0
2014-Dec-14 07:33N 01°16' E 103°51'0 0.0
2014-Dec-14 06:33N 01°16' E 103°51'0 0.0
2014-Dec-14 04:33N 01°16' E 103°51'0 0.0
2014-Dec-14 02:33N 01°16' E 103°51'0 0.0
2014-Dec-14 01:27N 01°16' E 103°51'0 0.0
2014-Dec-14 00:33N 01°16' E 103°51'1 0.7
2014-Dec-13 23:32N 01°16' E 103°51'1 0.6
2014-Dec-13 22:33N 01°16' E 103°50'0 0.0
2014-Dec-13 21:33N 01°16' E 103°50'0 0.0
2014-Dec-13 20:33N 01°16' E 103°50'0 0.0
2014-Dec-13 19:33N 01°16' E 103°50'0 0.0
2014-Dec-13 18:33N 01°16' E 103°50'0 0.0
2014-Dec-13 17:33N 01°16' E 103°50'0 0.0
2014-Dec-13 16:33N 01°16' E 103°50'0 0.0
2014-Dec-13 15:33N 01°16' E 103°50'0 0.0
2014-Dec-13 14:33N 01°16' E 103°50'0 0.0
2014-Dec-13 13:33N 01°16' E 103°50'0 0.0
2014-Dec-13 12:33N 01°16' E 103°50'0 0.0
2014-Dec-13 11:33N 01°16' E 103°50'0 0.0
2014-Dec-13 10:33N 01°16' E 103°50'0 0.0
2014-Dec-13 09:33N 01°16' E 103°50'0 0.0
2014-Dec-13 08:33N 01°16' E 103°50'0 0.0
2014-Dec-13 07:33N 01°16' E 103°50'0 0.0
2014-Dec-13 06:33N 01°16' E 103°50'0 0.0
2014-Dec-13 05:33N 01°16' E 103°50'0 0.0
2014-Dec-13 04:33N 01°16' E 103°50'0 0.0
2014-Dec-13 03:33N 01°16' E 103°50'0 0.0
2014-Dec-13 02:33N 01°16' E 103°50'0 0.0
2014-Dec-13 01:33N 01°16' E 103°50'0 0.0
2014-Dec-13 00:33N 01°16' E 103°50'2 1.8
2014-Dec-12 23:33N 01°15' E 103°52'5 4.9
2014-Dec-12 22:32N 01°14' E 103°57'1313.1
2014-Dec-12 21:33N 01°16' E 104°09'  
2014-Dec-09 13:31N 22°34' E 114°16'0 0.1
2014-Dec-09 12:23N 22°34' E 114°16'0 0.0
2014-Dec-09 11:30N 22°34' E 114°16'0 0.0
2014-Dec-09 10:17N 22°34' E 114°16'0 0.0
2014-Dec-09 09:29N 22°34' E 114°16'0 0.0
2014-Dec-09 08:23N 22°34' E 114°16'0 0.0
2014-Dec-09 07:29N 22°34' E 114°16'0 0.0
2014-Dec-09 06:29N 22°34' E 114°16'0 0.0
2014-Dec-09 04:30N 22°34' E 114°16'0 0.0
2014-Dec-09 03:17N 22°34' E 114°16'0 0.0
2014-Dec-09 02:30N 22°34' E 114°16'0 0.0
2014-Dec-09 01:05N 22°34' E 114°16'0 0.0
2014-Dec-08 23:23N 22°34' E 114°16'0 0.0
2014-Dec-08 22:29N 22°34' E 114°16'0 0.0
2014-Dec-08 21:25N 22°34' E 114°16'18 3.0
2014-Dec-08 15:33N 22°20' E 114°05'1110.9
2014-Dec-08 14:33N 22°23' E 113°54'4 3.2
2014-Dec-08 13:23N 22°27' E 113°53'0 0.0
2014-Dec-08 12:29N 22°27' E 113°53'0 0.0
2014-Dec-08 11:23N 22°27' E 113°53'0 0.0
2014-Dec-08 10:29N 22°27' E 113°53'0 0.0
2014-Dec-08 09:29N 22°27' E 113°53'0 0.0
2014-Dec-08 08:29N 22°27' E 113°53'0 0.0
2014-Dec-08 07:29N 22°27' E 113°53'0 0.0
2014-Dec-08 06:29N 22°27' E 113°53'0 0.0
2014-Dec-08 05:29N 22°27' E 113°53'0 0.0
2014-Dec-08 04:29N 22°27' E 113°53'0 0.0
2014-Dec-08 03:29N 22°27' E 113°53'0 0.0
2014-Dec-08 02:29N 22°27' E 113°53'0 0.0
2014-Dec-08 01:29N 22°27' E 113°53'0 0.0
2014-Dec-08 00:29N 22°27' E 113°53'0 0.0
2014-Dec-07 23:29N 22°27' E 113°53'4 4.7
2014-Dec-07 22:33N 22°23' E 113°54'1010.3
2014-Dec-07 21:33N 22°20' E 114°05'1 0.1
2014-Dec-07 00:33N 22°19' E 114°06'12 9.7
2014-Dec-06 23:18N 22°09' E 114°14'  
Track history (hours):
 
Tides and Currents Weather Stations Pressure Air Temp Water Temp Dewpoint Dewpoint Depression Visibility Wind Speed Wind Dir Waves Ship Positions

OOCL Hamburg

Last reported at 2014-Dec-14 23:28 UTC. Time now 2014-Dec-22 10:39 UTC.
Position N 02°02' E 102°10'.

Length 323 m; beam 42.8 m; draft 14.5 m.

Type: Cargo ship. MMSI: 477702000.

Date/timePositionNaut miles runAvg speedWind from/ knotsBaromVisibWave heightAir tempDewpointWater temp
2014-Dec-14 23:28N 02°02' E 102°10'1617.4
2014-Dec-14 22:33N 01°53' E 102°23'1817.4
2014-Dec-14 21:33N 01°45' E 102°39'6817.0
2014-Dec-14 17:33N 01°11' E 103°38'1414.5
2014-Dec-14 16:33N 01°13' E 103°52'3 2.8
2014-Dec-14 15:33N 01°16' E 103°51'0 0.0
2014-Dec-14 14:30N 01°16' E 103°51'0 0.0
2014-Dec-14 13:30N 01°16' E 103°51'0 0.0
2014-Dec-14 12:33N 01°16' E 103°51'0 0.0
2014-Dec-14 11:33N 01°16' E 103°51'0 0.0
2014-Dec-14 10:33N 01°16' E 103°51'0 0.0
2014-Dec-14 09:27N 01°16' E 103°51'0 0.0
2014-Dec-14 08:27N 01°16' E 103°51'0 0.0
2014-Dec-14 07:33N 01°16' E 103°51'0 0.0
2014-Dec-14 06:33N 01°16' E 103°51'0 0.0
2014-Dec-14 04:33N 01°16' E 103°51'0 0.0
2014-Dec-14 02:33N 01°16' E 103°51'0 0.0
2014-Dec-14 01:27N 01°16' E 103°51'0 0.0
2014-Dec-14 00:33N 01°16' E 103°51'1 0.7
2014-Dec-13 23:32N 01°16' E 103°51'1 0.6
2014-Dec-13 22:33N 01°16' E 103°50'0 0.0
2014-Dec-13 21:33N 01°16' E 103°50'0 0.0
2014-Dec-13 20:33N 01°16' E 103°50'0 0.0
2014-Dec-13 19:33N 01°16' E 103°50'0 0.0
2014-Dec-13 18:33N 01°16' E 103°50'0 0.0
2014-Dec-13 17:33N 01°16' E 103°50'0 0.0
2014-Dec-13 16:33N 01°16' E 103°50'0 0.0
2014-Dec-13 15:33N 01°16' E 103°50'0 0.0
2014-Dec-13 14:33N 01°16' E 103°50'0 0.0
2014-Dec-13 13:33N 01°16' E 103°50'0 0.0
2014-Dec-13 12:33N 01°16' E 103°50'0 0.0
2014-Dec-13 11:33N 01°16' E 103°50'0 0.0
2014-Dec-13 10:33N 01°16' E 103°50'0 0.0
2014-Dec-13 09:33N 01°16' E 103°50'0 0.0
2014-Dec-13 08:33N 01°16' E 103°50'0 0.0
2014-Dec-13 07:33N 01°16' E 103°50'0 0.0
2014-Dec-13 06:33N 01°16' E 103°50'0 0.0
2014-Dec-13 05:33N 01°16' E 103°50'0 0.0
2014-Dec-13 04:33N 01°16' E 103°50'0 0.0
2014-Dec-13 03:33N 01°16' E 103°50'0 0.0
2014-Dec-13 02:33N 01°16' E 103°50'0 0.0
2014-Dec-13 01:33N 01°16' E 103°50'0 0.0
2014-Dec-13 00:33N 01°16' E 103°50'2 1.8
2014-Dec-12 23:33N 01°15' E 103°52'5 4.9
2014-Dec-12 22:32N 01°14' E 103°57'1313.1
2014-Dec-12 21:33N 01°16' E 104°09'  
2014-Dec-09 13:31N 22°34' E 114°16'0 0.1
2014-Dec-09 12:23N 22°34' E 114°16'0 0.0
2014-Dec-09 11:30N 22°34' E 114°16'0 0.0
2014-Dec-09 10:17N 22°34' E 114°16'0 0.0
2014-Dec-09 09:29N 22°34' E 114°16'0 0.0
2014-Dec-09 08:23N 22°34' E 114°16'0 0.0
2014-Dec-09 07:29N 22°34' E 114°16'0 0.0
2014-Dec-09 06:29N 22°34' E 114°16'0 0.0
2014-Dec-09 04:30N 22°34' E 114°16'0 0.0
2014-Dec-09 03:17N 22°34' E 114°16'0 0.0
2014-Dec-09 02:30N 22°34' E 114°16'0 0.0
2014-Dec-09 01:05N 22°34' E 114°16'0 0.0
2014-Dec-08 23:23N 22°34' E 114°16'0 0.0
2014-Dec-08 22:29N 22°34' E 114°16'0 0.0
2014-Dec-08 21:25N 22°34' E 114°16'18 3.0
2014-Dec-08 15:33N 22°20' E 114°05'1110.9
2014-Dec-08 14:33N 22°23' E 113°54'4 3.2
2014-Dec-08 13:23N 22°27' E 113°53'0 0.0
2014-Dec-08 12:29N 22°27' E 113°53'0 0.0
2014-Dec-08 11:23N 22°27' E 113°53'0 0.0
2014-Dec-08 10:29N 22°27' E 113°53'0 0.0
2014-Dec-08 09:29N 22°27' E 113°53'0 0.0
2014-Dec-08 08:29N 22°27' E 113°53'0 0.0
2014-Dec-08 07:29N 22°27' E 113°53'0 0.0
2014-Dec-08 06:29N 22°27' E 113°53'0 0.0
2014-Dec-08 05:29N 22°27' E 113°53'0 0.0
2014-Dec-08 04:29N 22°27' E 113°53'0 0.0
2014-Dec-08 03:29N 22°27' E 113°53'0 0.0
2014-Dec-08 02:29N 22°27' E 113°53'0 0.0
2014-Dec-08 01:29N 22°27' E 113°53'0 0.0
2014-Dec-08 00:29N 22°27' E 113°53'0 0.0
2014-Dec-07 23:29N 22°27' E 113°53'4 4.7
2014-Dec-07 22:33N 22°23' E 113°54'1010.3
2014-Dec-07 21:33N 22°20' E 114°05'1 0.1
2014-Dec-07 00:33N 22°19' E 114°06'12 9.7
2014-Dec-06 23:18N 22°09' E 114°14'  

Dump ship's entire track history